createdAt,value
2022-11-22T00:04:52.804Z,41.70
2022-11-22T00:19:54.710Z,35.40
2022-11-22T00:34:57.109Z,31.00
2022-11-22T00:49:58.278Z,29.20
2022-11-22T01:05:01.079Z,32.20
2022-11-22T01:20:03.631Z,31.70
2022-11-22T01:35:06.484Z,27.50
2022-11-22T01:50:07.452Z,34.00
2022-11-22T02:05:09.340Z,32.90
2022-11-22T02:20:11.241Z,29.00
2022-11-22T02:35:12.580Z,33.00
2022-11-22T02:50:14.538Z,30.90
2022-11-22T03:05:16.485Z,35.10
2022-11-22T03:20:18.281Z,31.90
2022-11-22T03:35:20.735Z,32.20
2022-11-22T03:50:22.094Z,32.70
2022-11-22T04:05:24.568Z,35.80
2022-11-22T04:20:27.508Z,33.70
2022-11-22T04:35:29.189Z,31.40
2022-11-22T04:50:31.057Z,35.20
2022-11-22T05:05:32.950Z,31.80
2022-11-22T05:20:36.348Z,34.90
2022-11-22T05:35:38.797Z,40.70
2022-11-22T05:50:41.161Z,39.40
2022-11-22T06:05:43.081Z,43.30
2022-11-22T06:20:45.414Z,38.10
2022-11-22T06:35:47.314Z,47.80
2022-11-22T06:50:49.215Z,47.50
2022-11-22T07:05:50.572Z,42.70
2022-11-22T07:20:52.980Z,40.30
2022-11-22T07:35:54.843Z,45.40
2022-11-22T07:50:55.741Z,38.80
2022-11-22T08:05:58.765Z,43.80
2022-11-22T08:20:59.215Z,44.10
2022-11-22T08:36:01.291Z,40.00
2022-11-22T08:51:02.156Z,36.00
2022-11-22T09:21:07.525Z,39.20
2022-11-22T09:36:09.445Z,51.30
2022-11-22T09:51:09.897Z,52.90
2022-11-22T10:06:10.212Z,55.40
2022-11-22T10:21:11.951Z,57.00
2022-11-22T10:36:15.701Z,52.40
2022-11-22T10:51:16.670Z,60.80
2022-11-22T11:06:33.458Z,61.90
2022-11-22T11:21:23.881Z,55.00
2022-11-22T11:36:26.118Z,61.20
2022-11-22T11:51:26.375Z,59.60
2022-11-22T12:06:28.703Z,53.60
2022-11-22T12:21:29.909Z,58.00
2022-11-22T12:36:33.029Z,71.00
2022-11-22T12:51:37.561Z,62.30
2022-11-22T13:06:41.284Z,56.90
2022-11-22T13:21:43.704Z,64.90
2022-11-22T13:36:45.244Z,63.00
2022-11-22T13:51:46.751Z,69.90
2022-11-22T14:06:48.669Z,70.10
2022-11-22T14:21:50.393Z,66.60
2022-11-22T14:36:51.635Z,63.50
2022-11-22T14:51:53.368Z,68.60
2022-11-22T15:09:18.389Z,65.80
2022-11-22T16:07:18.566Z,79.30
2022-11-22T16:22:21.013Z,70.60
2022-11-22T16:37:21.583Z,69.20
2022-11-22T16:52:23.149Z,81.40
2022-11-22T17:07:23.978Z,83.70
2022-11-22T17:22:26.052Z,80.20
2022-11-22T17:37:28.970Z,90.60
2022-11-22T17:52:29.337Z,86.70
2022-11-22T18:07:30.627Z,83.30
2022-11-22T18:22:32.194Z,76.60
2022-11-22T18:37:33.068Z,80.00
2022-11-22T18:52:33.227Z,84.50
2022-11-22T19:07:35.251Z,71.70
2022-11-22T19:22:35.673Z,88.60
2022-11-22T19:37:38.083Z,78.20
2022-11-22T19:52:42.267Z,90.00
2022-11-22T20:07:45.234Z,80.20
2022-11-22T20:22:46.398Z,78.50
2022-11-22T20:37:48.584Z,76.70
2022-11-22T20:52:50.999Z,74.40
2022-11-22T21:07:54.447Z,69.90
2022-11-22T21:22:55.750Z,88.60
2022-11-22T21:37:57.719Z,86.80
2022-11-22T21:52:58.691Z,86.40
2022-11-22T22:08:00.772Z,79.20
2022-11-22T22:23:02.681Z,94.10
2022-11-22T22:38:05.365Z,96.10
2022-11-22T22:53:08.079Z,79.50
2022-11-22T23:08:08.997Z,98.60
2022-11-22T23:23:09.133Z,89.40
2022-11-22T23:38:11.274Z,96.80
2022-11-22T23:53:12.751Z,113.40
